Time;durP1;ratioP1;P1;durP2;ratioP2;P2;SDS_P1;SDS_P2;PMS_P1;PMS_P2;Temp;Humidity;BMP_temperature;BMP_pressure;BME280_temperature;BME280_humidity;BME280_pressure;Samples;Min_cycle;Max_cycle;Signal;HPM_P1;HPM_P2
2023/07/30 00:02:01;;;;;;;8.52;4.00;;;16.70;99.90;;;;;;6213413;23;20071;-79
2023/07/30 00:04:27;;;;;;;6.50;3.65;;;16.70;99.90;;;;;;6213512;23;20000;-79
2023/07/30 00:06:52;;;;;;;6.15;3.50;;;16.70;99.90;;;;;;6213488;23;20004;-79
2023/07/30 00:09:18;;;;;;;8.05;3.85;;;16.70;99.90;;;;;;6213127;23;20004;-79
2023/07/30 00:11:43;;;;;;;6.22;2.70;;;16.70;99.90;;;;;;6213857;23;20012;-79
2023/07/30 00:14:09;;;;;;;5.28;2.80;;;16.70;99.90;;;;;;6212499;23;20123;-79
2023/07/30 00:16:35;;;;;;;8.05;3.95;;;16.70;99.90;;;;;;6213092;23;20008;-79
2023/07/30 00:19:00;;;;;;;7.82;4.30;;;16.70;99.90;;;;;;6211914;23;19996;-79
2023/07/30 00:21:26;;;;;;;7.95;3.88;;;16.60;99.90;;;;;;6210389;23;20037;-78
2023/07/30 00:23:51;;;;;;;7.30;3.75;;;16.60;99.90;;;;;;6211237;23;20060;-79
2023/07/30 00:26:17;;;;;;;8.90;3.95;;;16.60;99.90;;;;;;6210448;23;20004;-80
2023/07/30 00:28:43;;;;;;;7.45;3.60;;;16.70;99.90;;;;;;6210723;23;19997;-80
2023/07/30 00:31:08;;;;;;;7.20;3.80;;;16.60;99.90;;;;;;6210951;23;20040;-79
2023/07/30 00:33:34;;;;;;;7.95;3.20;;;16.60;99.90;;;;;;6209723;23;20008;-79
2023/07/30 00:35:59;;;;;;;6.75;3.35;;;16.60;99.90;;;;;;6213217;23;20009;-79
2023/07/30 00:38:25;;;;;;;7.25;3.53;;;16.60;99.90;;;;;;6213011;23;20047;-79
2023/07/30 00:40:50;;;;;;;9.38;3.88;;;16.50;99.90;;;;;;6213643;23;20625;-79
2023/07/30 00:43:16;;;;;;;5.43;3.28;;;16.50;99.90;;;;;;6212432;23;20072;-79
2023/07/30 00:45:44;;;;;;;4.20;2.78;;;16.50;99.90;;;;;;6213561;23;19996;-79
2023/07/30 00:48:13;;;;;;;6.20;3.80;;;16.50;99.90;;;;;;6212892;23;19997;-79
2023/07/30 00:50:40;;;;;;;4.72;2.53;;;16.50;99.90;;;;;;6211834;23;20001;-79
2023/07/30 00:53:08;;;;;;;8.50;3.05;;;16.50;99.90;;;;;;6212503;23;20017;-80
2023/07/30 00:55:35;;;;;;;4.90;3.13;;;16.40;99.90;;;;;;6213381;23;20055;-80
2023/07/30 00:58:01;;;;;;;7.55;3.20;;;16.40;99.90;;;;;;6185940;23;20039;-80
2023/07/30 01:00:26;;;;;;;8.52;3.13;;;16.40;99.90;;;;;;6213186;23;20000;-80
2023/07/30 01:02:52;;;;;;;6.15;3.28;;;16.40;99.90;;;;;;6213188;23;20019;-78
2023/07/30 01:05:18;;;;;;;6.25;2.60;;;16.40;99.90;;;;;;6212604;23;20414;-79
2023/07/30 01:07:43;;;;;;;6.63;3.00;;;16.40;99.90;;;;;;6213151;23;20449;-80
2023/07/30 01:10:10;;;;;;;4.88;2.75;;;16.30;99.90;;;;;;6212717;23;20005;-79
2023/07/30 01:12:36;;;;;;;8.60;3.13;;;16.30;99.90;;;;;;6212323;23;20013;-79
2023/07/30 01:15:03;;;;;;;4.93;3.13;;;16.30;99.90;;;;;;6212655;23;20001;-79
2023/07/30 01:17:29;;;;;;;5.93;2.88;;;16.30;99.90;;;;;;6212832;23;20048;-79
2023/07/30 01:19:55;;;;;;;9.80;3.15;;;16.30;99.90;;;;;;6213072;23;20005;-80
2023/07/30 01:22:22;;;;;;;8.75;3.08;;;16.30;99.90;;;;;;6212599;23;20035;-79
2023/07/30 01:24:49;;;;;;;5.57;2.72;;;16.30;99.90;;;;;;6213033;23;20001;-79
2023/07/30 01:27:23;;;;;;;7.40;3.25;;;16.20;99.90;;;;;;6185968;23;20005;-79
2023/07/30 01:29:55;;;;;;;4.18;2.80;;;16.30;99.90;;;;;;6212924;23;20005;-79
2023/07/30 01:32:26;;;;;;;8.25;3.22;;;16.20;99.90;;;;;;6212322;23;20005;-79
2023/07/30 01:34:53;;;;;;;9.73;3.35;;;16.20;99.90;;;;;;6213010;23;20000;-79
2023/07/30 01:37:21;;;;;;;7.30;3.78;;;16.20;99.90;;;;;;6212197;23;19996;-79
2023/07/30 01:39:49;;;;;;;7.40;4.30;;;16.20;99.90;;;;;;6212451;23;20082;-79
2023/07/30 01:42:15;;;;;;;5.18;3.38;;;16.20;99.90;;;;;;6212470;23;20061;-79
2023/07/30 01:44:41;;;;;;;6.65;3.20;;;16.20;99.90;;;;;;6212617;23;20004;-79
2023/07/30 01:47:07;;;;;;;7.85;4.18;;;16.20;99.90;;;;;;6212507;23;20007;-79
2023/07/30 01:49:32;;;;;;;4.80;3.53;;;16.10;99.90;;;;;;6212493;23;20008;-79
2023/07/30 01:51:58;;;;;;;7.28;3.90;;;16.10;99.90;;;;;;6212177;23;20008;-79
2023/07/30 01:54:23;;;;;;;7.32;3.67;;;16.10;99.90;;;;;;6211443;23;20011;-79
2023/07/30 01:56:49;;;;;;;5.10;3.28;;;16.10;99.90;;;;;;6186241;23;20008;-80
2023/07/30 01:59:14;;;;;;;8.48;3.45;;;16.10;99.90;;;;;;6212134;23;20453;-80
2023/07/30 02:01:41;;;;;;;4.43;3.70;;;16.10;99.90;;;;;;6212509;23;20020;-80
2023/07/30 02:04:07;;;;;;;8.88;4.30;;;16.10;99.90;;;;;;6211945;23;20011;-79
2023/07/30 02:06:32;;;;;;;6.63;3.70;;;16.20;99.90;;;;;;6212382;23;20076;-79
2023/07/30 02:08:58;;;;;;;10.00;4.20;;;16.20;99.90;;;;;;6211751;23;20031;-79
2023/07/30 02:11:24;;;;;;;6.95;3.30;;;16.20;99.90;;;;;;6211974;23;20036;-79
2023/07/30 02:13:49;;;;;;;7.07;3.85;;;16.20;99.90;;;;;;6212360;23;20478;-80
2023/07/30 02:16:15;;;;;;;5.22;3.50;;;16.20;99.90;;;;;;6212116;23;20043;-79
2023/07/30 02:18:40;;;;;;;4.28;3.72;;;16.30;99.90;;;;;;6212348;23;20020;-79
2023/07/30 02:21:06;;;;;;;7.68;3.63;;;16.30;99.90;;;;;;6211772;23;20391;-79
2023/07/30 02:23:31;;;;;;;8.05;4.50;;;16.30;99.90;;;;;;6185210;23;19997;-79
2023/07/30 02:25:57;;;;;;;11.23;3.45;;;16.30;99.90;;;;;;6212468;23;20033;-79
2023/07/30 02:28:23;;;;;;;7.80;4.43;;;16.30;99.90;;;;;;6211859;23;19997;-79
2023/07/30 02:30:48;;;;;;;11.00;4.40;;;16.40;99.90;;;;;;6212435;23;20003;-79
2023/07/30 02:33:14;;;;;;;8.52;4.32;;;16.40;99.90;;;;;;6185222;23;20081;-79
2023/07/30 02:35:39;;;;;;;6.40;4.00;;;16.50;99.90;;;;;;6212451;23;20330;-79
2023/07/30 02:38:05;;;;;;;9.05;4.45;;;16.50;99.90;;;;;;6211170;23;20004;-80
2023/07/30 02:40:31;;;;;;;8.73;3.65;;;16.50;99.90;;;;;;6212269;23;20003;-79
2023/07/30 02:42:56;;;;;;;10.18;4.07;;;16.60;99.90;;;;;;6212031;23;20016;-79
2023/07/30 02:45:22;;;;;;;10.05;5.10;;;16.60;99.90;;;;;;6211892;23;20370;-79
2023/07/30 02:47:48;;;;;;;6.13;3.60;;;16.60;99.90;;;;;;6212166;23;20011;-79
2023/07/30 02:50:13;;;;;;;6.70;4.15;;;16.70;99.90;;;;;;6211853;23;20004;-79
2023/07/30 02:52:39;;;;;;;10.70;4.43;;;16.70;99.90;;;;;;6211353;23;20027;-80
2023/07/30 02:55:05;;;;;;;10.18;4.72;;;16.70;99.90;;;;;;6185584;23;20063;-79
2023/07/30 02:57:31;;;;;;;10.20;4.63;;;16.70;99.90;;;;;;6185553;23;20047;-79
2023/07/30 02:59:57;;;;;;;10.48;5.45;;;16.80;99.90;;;;;;6212331;23;20005;-79
2023/07/30 03:02:22;;;;;;;11.38;4.53;;;16.80;99.90;;;;;;6211509;23;20434;-79
2023/07/30 03:04:48;;;;;;;15.82;4.45;;;16.80;99.90;;;;;;6212232;23;20131;-80
2023/07/30 03:07:13;;;;;;;6.18;4.13;;;16.80;99.90;;;;;;6211092;23;20430;-80
2023/07/30 03:09:39;;;;;;;9.57;4.90;;;16.80;99.90;;;;;;6212301;23;20035;-81
2023/07/30 03:12:05;;;;;;;10.00;5.38;;;16.80;99.90;;;;;;6211776;23;20015;-80
2023/07/30 03:14:30;;;;;;;9.38;4.85;;;16.80;99.90;;;;;;6185608;23;20453;-80
2023/07/30 03:16:56;;;;;;;10.13;5.05;;;16.80;99.90;;;;;;6212068;23;20031;-79
2023/07/30 03:19:22;;;;;;;12.27;5.18;;;16.80;99.90;;;;;;6211621;23;20632;-80
2023/07/30 03:21:47;;;;;;;9.85;5.10;;;16.90;99.90;;;;;;6184976;23;20487;-79
2023/07/30 03:24:13;;;;;;;13.05;6.25;;;16.90;99.90;;;;;;6211412;23;20008;-80
2023/07/30 03:26:38;;;;;;;11.07;5.15;;;16.80;99.90;;;;;;6211645;23;20004;-80
2023/07/30 03:29:04;;;;;;;9.35;5.25;;;16.90;99.90;;;;;;6211482;23;20075;-79
2023/07/30 03:31:29;;;;;;;12.63;5.20;;;16.80;99.90;;;;;;6211609;23;20005;-80
2023/07/30 03:33:55;;;;;;;13.60;5.97;;;16.90;99.90;;;;;;6212009;23;20028;-80
2023/07/30 03:36:21;;;;;;;12.45;6.15;;;16.90;99.90;;;;;;6184155;23;20012;-80
2023/07/30 03:38:46;;;;;;;10.50;5.65;;;16.90;99.90;;;;;;6212024;23;20003;-80
2023/07/30 03:41:12;;;;;;;9.25;5.93;;;16.90;99.90;;;;;;6184963;23;20005;-80
2023/07/30 03:43:37;;;;;;;8.55;5.70;;;16.90;99.90;;;;;;6211635;23;20008;-79
2023/07/30 03:46:03;;;;;;;15.68;6.43;;;16.90;99.90;;;;;;6184613;23;20090;-80
2023/07/30 03:48:29;;;;;;;8.40;5.55;;;16.90;99.90;;;;;;6211586;23;20000;-79
2023/07/30 03:50:55;;;;;;;12.90;6.38;;;16.90;99.90;;;;;;6211012;23;20047;-79
2023/07/30 03:53:21;;;;;;;16.00;7.80;;;16.90;99.90;;;;;;6191202;23;20091;-79
2023/07/30 03:55:47;;;;;;;15.25;6.97;;;16.90;99.90;;;;;;6210208;23;20111;-79
2023/07/30 03:58:13;;;;;;;12.25;6.68;;;16.90;99.90;;;;;;6209764;23;20005;-79
2023/07/30 04:00:38;;;;;;;16.90;6.97;;;16.90;99.90;;;;;;6211568;23;20107;-79
2023/07/30 04:03:04;;;;;;;16.17;7.20;;;16.90;99.90;;;;;;6211224;23;20005;-79
2023/07/30 04:05:30;;;;;;;11.90;6.88;;;16.90;99.90;;;;;;6210698;23;20005;-79
2023/07/30 04:07:56;;;;;;;12.73;5.93;;;16.90;99.90;;;;;;6211672;23;20493;-79
2023/07/30 04:10:22;;;;;;;16.70;6.43;;;16.90;99.90;;;;;;6211131;23;20005;-79
2023/07/30 04:12:48;;;;;;;10.35;5.75;;;17.00;99.90;;;;;;6210803;23;20076;-79
2023/07/30 04:15:15;;;;;;;13.90;6.60;;;17.00;99.90;;;;;;6210904;23;20457;-79
2023/07/30 04:17:41;;;;;;;12.18;7.15;;;17.00;99.90;;;;;;6211135;23;19997;-79
2023/07/30 04:20:09;;;;;;;13.60;6.55;;;17.00;99.90;;;;;;6211654;23;20001;-79
2023/07/30 04:22:38;;;;;;;12.45;7.28;;;17.00;99.90;;;;;;6213151;23;20019;-80
2023/07/30 04:25:04;;;;;;;14.88;7.50;;;17.00;99.90;;;;;;6212790;23;20011;-80
2023/07/30 04:27:29;;;;;;;15.05;8.15;;;17.00;99.90;;;;;;6213296;23;20068;-80
2023/07/30 04:29:55;;;;;;;16.33;6.65;;;17.00;99.90;;;;;;6211368;23;20299;-79
2023/07/30 04:32:21;;;;;;;13.48;7.72;;;17.00;99.90;;;;;;6210926;23;20079;-80
2023/07/30 04:34:46;;;;;;;12.45;7.55;;;17.00;99.90;;;;;;6211366;23;20442;-79
2023/07/30 04:37:12;;;;;;;15.80;6.93;;;17.00;99.90;;;;;;6212354;23;20012;-80
2023/07/30 04:39:38;;;;;;;16.08;7.25;;;17.10;99.90;;;;;;6212620;23;19997;-80
2023/07/30 04:42:04;;;;;;;12.52;7.57;;;17.10;99.90;;;;;;6212929;23;20004;-79
2023/07/30 04:44:29;;;;;;;18.00;8.98;;;17.10;99.90;;;;;;6212768;23;20012;-79
2023/07/30 04:46:55;;;;;;;19.38;7.63;;;17.10;99.90;;;;;;6212980;23;20004;-79
2023/07/30 04:49:20;;;;;;;18.17;8.45;;;17.20;99.90;;;;;;6211839;23;20399;-79
2023/07/30 04:51:46;;;;;;;24.98;9.48;;;17.20;99.90;;;;;;6212938;23;20008;-80
2023/07/30 04:54:12;;;;;;;15.43;8.07;;;17.20;99.90;;;;;;6212086;23;20013;-79
2023/07/30 04:56:37;;;;;;;15.27;8.13;;;17.30;99.90;;;;;;6213021;23;20172;-79
2023/07/30 04:59:03;;;;;;;16.02;8.43;;;17.30;99.90;;;;;;6212632;23;20028;-79
2023/07/30 05:01:29;;;;;;;10.93;8.10;;;17.30;99.90;;;;;;6212976;23;20086;-79
2023/07/30 05:03:55;;;;;;;16.90;7.47;;;17.40;99.90;;;;;;6212371;23;20087;-79
2023/07/30 05:06:20;;;;;;;19.30;9.68;;;17.50;99.90;;;;;;6212610;23;20415;-79
2023/07/30 05:08:46;;;;;;;15.75;8.48;;;17.50;99.90;;;;;;6186045;23;20005;-80
2023/07/30 05:11:11;;;;;;;18.92;9.35;;;17.50;99.90;;;;;;6212221;23;20075;-80
2023/07/30 05:13:37;;;;;;;20.00;9.98;;;17.50;99.90;;;;;;6212486;23;20331;-80
2023/07/30 05:16:03;;;;;;;22.85;9.80;;;17.50;99.90;;;;;;6212375;23;20004;-80
2023/07/30 05:18:29;;;;;;;24.83;11.27;;;17.60;99.90;;;;;;6183562;23;20382;-80
2023/07/30 05:20:55;;;;;;;18.58;9.75;;;17.60;99.90;;;;;;6210217;23;20005;-80
2023/07/30 05:23:20;;;;;;;20.33;10.05;;;17.70;99.90;;;;;;6208503;23;20445;-79
2023/07/30 05:25:46;;;;;;;16.98;9.45;;;17.70;99.90;;;;;;6211479;23;20030;-80
2023/07/30 05:28:12;;;;;;;19.75;9.23;;;17.70;99.90;;;;;;6184302;23;20449;-79
2023/07/30 05:30:38;;;;;;;18.65;9.68;;;17.70;99.90;;;;;;6212318;23;20000;-79
2023/07/30 05:33:03;;;;;;;14.75;8.98;;;17.80;99.90;;;;;;6184919;23;20035;-79
2023/07/30 05:35:29;;;;;;;21.85;9.57;;;17.80;99.90;;;;;;6212337;23;19997;-80
2023/07/30 05:37:54;;;;;;;15.50;9.55;;;17.90;99.90;;;;;;6212498;23;20075;-79
2023/07/30 05:40:21;;;;;;;16.27;9.00;;;18.00;99.90;;;;;;6211822;23;20114;-80
2023/07/30 05:42:46;;;;;;;19.17;9.57;;;18.00;99.90;;;;;;6185903;23;20464;-80
2023/07/30 05:45:12;;;;;;;15.60;9.82;;;18.10;99.90;;;;;;6212205;23;20009;-80
2023/07/30 05:47:38;;;;;;;19.52;9.27;;;18.10;99.90;;;;;;6211597;23;20080;-80
2023/07/30 05:50:04;;;;;;;21.05;11.00;;;18.10;99.90;;;;;;6212288;23;20005;-79
2023/07/30 05:52:29;;;;;;;20.38;10.50;;;18.20;99.90;;;;;;6211605;23;20014;-79
2023/07/30 05:54:55;;;;;;;21.52;11.90;;;18.20;99.90;;;;;;6212294;23;20001;-79
2023/07/30 05:57:21;;;;;;;22.42;11.13;;;18.20;99.90;;;;;;6211859;23;20697;-80
2023/07/30 05:59:46;;;;;;;21.73;10.43;;;18.30;99.90;;;;;;6212205;23;20000;-80
2023/07/30 06:02:12;;;;;;;16.20;10.55;;;18.30;99.90;;;;;;6211309;23;20008;-79
2023/07/30 06:04:38;;;;;;;25.05;12.32;;;18.30;99.90;;;;;;6212215;23;20488;-80
2023/07/30 06:07:04;;;;;;;24.55;12.60;;;18.30;99.90;;;;;;6211653;23;20001;-79
2023/07/30 06:09:29;;;;;;;24.70;12.23;;;18.40;99.90;;;;;;6212183;23;20072;-80
2023/07/30 06:11:58;;;;;;;22.10;11.77;;;18.40;99.90;;;;;;6185740;23;20015;-80
2023/07/30 06:14:24;;;;;;;20.33;11.88;;;18.40;99.90;;;;;;6212001;23;20024;-79
2023/07/30 06:16:51;;;;;;;21.58;11.98;;;18.50;99.90;;;;;;6185200;23;20005;-79
2023/07/30 06:19:17;;;;;;;21.70;12.35;;;18.50;99.90;;;;;;6211460;23;20004;-79
2023/07/30 06:21:42;;;;;;;21.88;10.85;;;18.50;99.90;;;;;;6212038;23;20001;-79
2023/07/30 06:24:08;;;;;;;24.50;13.23;;;18.60;99.90;;;;;;6211876;23;20080;-79
2023/07/30 06:26:33;;;;;;;22.20;11.68;;;18.70;99.90;;;;;;6212257;23;20032;-79
2023/07/30 06:28:59;;;;;;;17.13;10.10;;;18.70;99.90;;;;;;6212463;23;19997;-79
2023/07/30 06:31:25;;;;;;;17.88;10.57;;;18.80;99.90;;;;;;6211193;23;20012;-79
2023/07/30 06:33:50;;;;;;;17.50;10.82;;;18.80;99.90;;;;;;6212568;23;20419;-79
2023/07/30 06:36:16;;;;;;;20.70;12.07;;;18.80;99.90;;;;;;6211672;23;20076;-79
2023/07/30 06:38:41;;;;;;;18.75;11.40;;;18.90;99.90;;;;;;6212426;23;19996;-79
2023/07/30 06:41:07;;;;;;;19.90;11.00;;;18.90;99.90;;;;;;6185298;23;20004;-79
2023/07/30 06:43:33;;;;;;;21.45;12.20;;;19.00;99.90;;;;;;6211713;23;20161;-79
2023/07/30 06:45:58;;;;;;;20.13;11.07;;;19.00;99.90;;;;;;6211572;23;20001;-79
2023/07/30 06:48:24;;;;;;;20.67;11.18;;;19.00;99.90;;;;;;6211812;23;20001;-79
2023/07/30 06:50:49;;;;;;;19.92;11.82;;;19.10;99.90;;;;;;6212008;23;20214;-79
2023/07/30 06:53:15;;;;;;;17.42;10.50;;;19.10;99.90;;;;;;6211362;23;20439;-79
2023/07/30 06:55:41;;;;;;;21.67;12.93;;;19.20;99.90;;;;;;6211087;23;20035;-79
2023/07/30 06:58:06;;;;;;;18.80;11.05;;;19.30;99.90;;;;;;6211330;23;20001;-79
2023/07/30 07:00:32;;;;;;;25.55;11.40;;;19.30;99.90;;;;;;6210574;23;20001;-81
2023/07/30 07:02:57;;;;;;;16.05;10.43;;;19.30;99.90;;;;;;6211110;23;20005;-78
2023/07/30 07:05:23;;;;;;;18.63;11.48;;;19.40;99.90;;;;;;6210251;23;20027;-77
2023/07/30 07:07:49;;;;;;;19.27;11.43;;;19.30;99.90;;;;;;6211353;23;20055;-77
2023/07/30 07:10:14;;;;;;;19.90;12.07;;;19.40;99.90;;;;;;6210646;23;20028;-77
2023/07/30 07:12:40;;;;;;;21.67;13.32;;;19.50;99.90;;;;;;6211879;23;20419;-77
2023/07/30 07:15:06;;;;;;;21.58;12.60;;;19.50;99.90;;;;;;6210361;23;20022;-77
2023/07/30 07:17:32;;;;;;;20.85;11.95;;;19.70;99.90;;;;;;6211583;23;20004;-77
2023/07/30 07:19:58;;;;;;;19.17;12.23;;;19.70;99.90;;;;;;6211532;23;20278;-77
2023/07/30 07:22:24;;;;;;;20.42;12.10;;;19.80;99.90;;;;;;6211441;23;20003;-77
2023/07/30 07:24:52;;;;;;;21.08;12.05;;;19.90;99.90;;;;;;6211922;23;20071;-77
2023/07/30 07:27:23;;;;;;;20.50;11.35;;;20.10;99.90;;;;;;6210848;23;20004;-77
2023/07/30 07:29:48;;;;;;;20.88;11.02;;;20.10;99.90;;;;;;6210876;23;20004;-77
2023/07/30 07:32:14;;;;;;;22.55;11.60;;;20.20;99.90;;;;;;6210468;23;20005;-77
2023/07/30 07:34:39;;;;;;;22.25;11.10;;;20.20;99.90;;;;;;6183760;23;20032;-77
2023/07/30 07:37:05;;;;;;;20.90;11.38;;;20.20;99.90;;;;;;6210968;23;20051;-77
2023/07/30 07:39:33;;;;;;;23.23;12.27;;;20.20;99.90;;;;;;6210861;23;20330;-78
2023/07/30 07:41:58;;;;;;;16.45;10.70;;;20.20;99.90;;;;;;6211208;23;20371;-77
2023/07/30 07:44:24;;;;;;;19.30;10.70;;;20.30;99.90;;;;;;6210889;23;20062;-78
2023/07/30 07:46:50;;;;;;;13.27;9.27;;;20.50;99.90;;;;;;6185225;23;20055;-78
2023/07/30 07:49:15;;;;;;;17.65;8.98;;;20.60;99.90;;;;;;6211362;23;20007;-77
2023/07/30 07:51:41;;;;;;;14.70;8.25;;;20.60;99.90;;;;;;6213569;23;20035;-77
2023/07/30 07:54:06;;;;;;;15.85;7.72;;;20.70;99.90;;;;;;6202604;23;20013;-78
2023/07/30 07:56:32;;;;;;;14.75;8.38;;;20.70;99.90;;;;;;6211545;23;20039;-77
2023/07/30 07:58:58;;;;;;;20.95;8.30;;;20.60;99.90;;;;;;6213422;23;20011;-78
2023/07/30 08:01:23;;;;;;;14.60;7.80;;;20.60;99.90;;;;;;6211252;23;20005;-77
2023/07/30 08:03:49;;;;;;;14.20;7.40;;;20.50;99.90;;;;;;6213658;23;19997;-78
2023/07/30 08:06:14;;;;;;;15.93;6.88;;;20.40;99.90;;;;;;6211217;23;19997;-77
2023/07/30 08:08:40;;;;;;;16.00;7.00;;;20.40;99.90;;;;;;6213459;23;20054;-77
2023/07/30 08:11:09;;;;;;;19.25;7.47;;;20.40;99.90;;;;;;6211353;23;20003;-77
2023/07/30 08:13:35;;;;;;;16.40;7.00;;;20.40;99.90;;;;;;6213355;23;20001;-78
2023/07/30 08:16:01;;;;;;;14.27;5.72;;;20.40;99.90;;;;;;6213415;23;20050;-77
2023/07/30 08:18:27;;;;;;;16.55;6.97;;;20.50;99.90;;;;;;6213004;23;20075;-78
2023/07/30 08:20:53;;;;;;;19.42;7.28;;;20.70;99.90;;;;;;6213698;23;19996;-77
2023/07/30 08:23:19;;;;;;;14.70;6.15;;;20.70;99.90;;;;;;6212806;23;20014;-76
2023/07/30 08:25:44;;;;;;;15.98;7.30;;;20.80;99.90;;;;;;6213133;23;20008;-77
2023/07/30 08:28:10;;;;;;;14.48;7.07;;;20.80;99.90;;;;;;6213148;23;20436;-77
2023/07/30 08:30:35;;;;;;;19.27;8.45;;;20.90;99.90;;;;;;6213318;23;20327;-77
2023/07/30 08:33:01;;;;;;;17.35;7.10;;;21.00;99.90;;;;;;6213287;23;20004;-77
2023/07/30 08:35:26;;;;;;;21.70;7.03;;;20.90;99.90;;;;;;6212987;23;20007;-77
2023/07/30 08:37:52;;;;;;;18.23;7.88;;;20.90;99.90;;;;;;6213297;23;20020;-77
2023/07/30 08:40:18;;;;;;;16.48;8.43;;;20.80;99.90;;;;;;6212081;23;20422;-78
2023/07/30 08:42:44;;;;;;;15.18;7.10;;;20.70;99.90;;;;;;6213537;23;20079;-78
2023/07/30 08:45:09;;;;;;;17.20;6.90;;;20.80;99.90;;;;;;6212751;23;20000;-78
2023/07/30 08:47:35;;;;;;;20.00;7.95;;;20.80;99.90;;;;;;6212940;23;20079;-78
2023/07/30 08:50:01;;;;;;;18.48;7.57;;;20.90;99.90;;;;;;6211401;23;20088;-77
2023/07/30 08:52:29;;;;;;;19.90;7.43;;;21.20;99.90;;;;;;6210842;23;20088;-77
2023/07/30 08:54:56;;;;;;;12.07;6.57;;;21.40;99.70;;;;;;6212676;23;20063;-77
2023/07/30 08:57:23;;;;;;;11.75;5.72;;;21.60;99.40;;;;;;6212568;23;20011;-78
2023/07/30 09:00:00;;;;;;;11.50;5.20;;;21.70;98.90;;;;;;6186420;23;20419;-78
2023/07/30 09:02:47;;;;;;;13.70;5.28;;;21.70;98.30;;;;;;6211599;23;20012;-78
2023/07/30 09:05:13;;;;;;;12.45;4.80;;;21.70;98.20;;;;;;6212140;23;19997;-78
2023/07/30 09:07:39;;;;;;;14.20;5.30;;;21.60;98.20;;;;;;6212745;23;20326;-78
2023/07/30 09:10:05;;;;;;;14.70;4.68;;;21.50;98.10;;;;;;6211958;23;20004;-77
2023/07/30 09:12:32;;;;;;;12.63;4.57;;;21.40;98.20;;;;;;6212751;23;20000;-78
2023/07/30 09:14:58;;;;;;;13.23;4.55;;;21.40;98.30;;;;;;6212695;23;20441;-78
2023/07/30 09:17:24;;;;;;;10.70;3.88;;;21.50;98.20;;;;;;6185269;23;20005;-78
2023/07/30 09:19:51;;;;;;;9.70;4.22;;;21.60;98.30;;;;;;6186339;23;20079;-78
2023/07/30 09:22:27;;;;;;;14.35;4.20;;;21.60;98.20;;;;;;6211907;23;20771;-78
2023/07/30 09:24:54;;;;;;;11.23;3.15;;;21.70;98.20;;;;;;6185485;23;20008;-78
2023/07/30 09:27:28;;;;;;;10.80;3.70;;;21.80;98.10;;;;;;6185710;23;20008;-77
2023/07/30 09:29:56;;;;;;;11.88;3.85;;;21.90;98.00;;;;;;6186080;23;20446;-77
2023/07/30 09:32:26;;;;;;;13.15;3.78;;;22.10;97.70;;;;;;6211789;23;20063;-78
2023/07/30 09:34:52;;;;;;;14.68;3.55;;;22.10;97.40;;;;;;6212599;23;20439;-77
2023/07/30 09:37:17;;;;;;;12.27;4.03;;;22.10;97.30;;;;;;6212078;23;19993;-76
2023/07/30 09:39:43;;;;;;;10.27;3.58;;;22.20;97.20;;;;;;6212012;23;19996;-77
2023/07/30 09:42:09;;;;;;;15.10;5.35;;;22.30;97.10;;;;;;6212355;23;20008;-77
2023/07/30 09:44:38;;;;;;;10.57;3.55;;;22.30;96.70;;;;;;6212373;23;20456;-78
2023/07/30 09:47:07;;;;;;;11.52;3.63;;;22.20;96.70;;;;;;6185525;23;20419;-76
2023/07/30 09:49:33;;;;;;;9.45;2.80;;;22.30;96.60;;;;;;6212345;23;20072;-76
2023/07/30 09:51:58;;;;;;;11.20;3.33;;;22.30;96.40;;;;;;6212160;23;20032;-77
2023/07/30 09:54:24;;;;;;;11.65;3.45;;;22.30;96.10;;;;;;6209588;23;20084;-77
2023/07/30 09:56:50;;;;;;;11.13;3.42;;;22.30;95.80;;;;;;6210628;23;20095;-76
2023/07/30 09:59:15;;;;;;;13.45;3.97;;;22.20;95.90;;;;;;6210104;23;20032;-76
2023/07/30 10:01:47;;;;;;;8.75;2.47;;;22.20;96.00;;;;;;6210317;23;20292;-77
2023/07/30 10:04:13;;;;;;;11.27;3.60;;;22.00;95.60;;;;;;6209943;23;20032;-76
2023/07/30 10:06:44;;;;;;;8.50;3.78;;;21.90;95.70;;;;;;6210311;23;20001;-77
2023/07/30 10:09:12;;;;;;;7.45;2.60;;;21.70;96.10;;;;;;6210825;23;20004;-77
2023/07/30 10:11:39;;;;;;;10.30;3.80;;;21.70;96.30;;;;;;6212209;23;20009;-77
2023/07/30 10:14:05;;;;;;;10.73;2.90;;;21.70;96.20;;;;;;6211899;23;20001;-77
2023/07/30 10:16:31;;;;;;;10.07;3.40;;;21.60;96.20;;;;;;6212277;23;20058;-76
2023/07/30 10:18:58;;;;;;;9.23;3.05;;;21.50;96.40;;;;;;6212114;23;20083;-78
2023/07/30 10:21:25;;;;;;;11.20;2.83;;;21.50;96.60;;;;;;6211302;23;20387;-77
2023/07/30 10:24:04;;;;;;;12.32;2.20;;;21.60;96.80;;;;;;6212387;23;20406;-77
2023/07/30 10:26:33;;;;;;;6.22;1.70;;;21.60;96.10;;;;;;6212177;23;19997;-76
2023/07/30 10:29:17;;;;;;;7.63;2.08;;;21.70;95.60;;;;;;6211712;23;20452;-79
2023/07/30 10:31:55;;;;;;;10.65;2.45;;;21.70;95.60;;;;;;6185254;23;20012;-77
2023/07/30 10:34:21;;;;;;;10.57;3.17;;;21.80;95.60;;;;;;6211791;23;20019;-77
2023/07/30 10:36:50;;;;;;;7.72;1.98;;;21.90;95.40;;;;;;6211650;23;20068;-76
2023/07/30 10:39:21;;;;;;;8.02;2.17;;;22.00;95.30;;;;;;6211662;23;20008;-77
2023/07/30 10:41:50;;;;;;;7.82;2.13;;;22.10;95.40;;;;;;6212476;23;20011;-76
2023/07/30 10:44:19;;;;;;;5.45;1.23;;;22.20;95.10;;;;;;6211628;23;20008;-77
2023/07/30 10:46:45;;;;;;;6.35;1.83;;;22.20;94.60;;;;;;6212208;23;20004;-77
2023/07/30 10:49:12;;;;;;;6.75;1.38;;;22.20;94.60;;;;;;6184973;23;20388;-77
2023/07/30 10:51:37;;;;;;;2.90;1.13;;;22.40;94.50;;;;;;6211272;23;20307;-77
2023/07/30 10:54:07;;;;;;;4.13;1.60;;;22.40;94.20;;;;;;6211332;23;20439;-77
2023/07/30 10:56:36;;;;;;;5.32;1.27;;;22.30;93.90;;;;;;6211075;23;20419;-77
2023/07/30 10:59:05;;;;;;;5.75;1.30;;;22.30;94.20;;;;;;6212056;23;20004;-77
2023/07/30 11:01:31;;;;;;;6.82;2.35;;;22.20;94.40;;;;;;6211831;23;20435;-77
2023/07/30 11:03:57;;;;;;;6.25;1.60;;;22.30;94.70;;;;;;6211983;23;20047;-77
2023/07/30 11:06:27;;;;;;;5.80;1.60;;;22.30;94.80;;;;;;6211227;23;19997;-77
2023/07/30 11:08:52;;;;;;;6.57;1.55;;;22.40;94.90;;;;;;6212062;23;20051;-77
2023/07/30 11:11:18;;;;;;;6.93;1.55;;;22.50;95.00;;;;;;6211292;23;20415;-78
2023/07/30 11:13:48;;;;;;;5.85;1.33;;;22.70;95.20;;;;;;6212351;23;20071;-77
2023/07/30 11:16:15;;;;;;;5.68;1.13;;;22.90;94.80;;;;;;6211726;23;19997;-77
2023/07/30 11:18:42;;;;;;;7.50;1.92;;;23.20;94.40;;;;;;6212023;23;20027;-78
2023/07/30 11:21:13;;;;;;;5.75;1.45;;;23.30;94.10;;;;;;6211249;23;20003;-77
2023/07/30 11:23:41;;;;;;;8.18;1.70;;;23.40;94.00;;;;;;6212261;23;20005;-77
2023/07/30 11:26:08;;;;;;;7.40;1.40;;;23.50;94.00;;;;;;6213891;23;20007;-77
2023/07/30 11:28:38;;;;;;;8.13;1.80;;;23.60;93.70;;;;;;6212898;23;20024;-77
2023/07/30 11:31:32;;;;;;;5.13;1.33;;;23.50;93.50;;;;;;6213483;23;20001;-77
2023/07/30 11:33:57;;;;;;;5.38;1.58;;;23.50;93.30;;;;;;6205881;23;20035;-77
2023/07/30 11:36:25;;;;;;;4.90;1.40;;;23.40;93.40;;;;;;6213561;23;20004;-77
2023/07/30 11:38:54;;;;;;;6.47;1.85;;;23.40;93.60;;;;;;6214165;23;20092;-77
2023/07/30 11:41:22;;;;;;;7.75;2.22;;;23.50;93.30;;;;;;6213385;23;20307;-77
2023/07/30 11:43:48;;;;;;;4.82;1.05;;;23.50;93.10;;;;;;6213629;23;20004;-77
2023/07/30 11:46:18;;;;;;;5.97;1.55;;;23.50;92.90;;;;;;6213341;23;20001;-78
2023/07/30 11:48:46;;;;;;;7.00;1.58;;;23.60;92.20;;;;;;6213230;23;20100;-78
2023/07/30 11:51:28;;;;;;;5.63;0.88;;;23.50;91.90;;;;;;6186290;23;20445;-77
2023/07/30 11:53:59;;;;;;;7.65;1.80;;;23.50;91.90;;;;;;6214124;23;20016;-77
2023/07/30 11:56:33;;;;;;;7.28;1.17;;;23.50;92.10;;;;;;6213327;23;20008;-78
2023/07/30 11:59:00;;;;;;;4.00;1.40;;;23.50;92.00;;;;;;6213634;23;20008;-78
2023/07/30 12:01:28;;;;;;;10.02;2.08;;;23.50;92.20;;;;;;6213444;23;20012;-77
2023/07/30 12:03:55;;;;;;;4.72;1.35;;;23.40;92.10;;;;;;6213522;23;20369;-77
2023/07/30 12:06:21;;;;;;;4.50;1.10;;;23.30;92.10;;;;;;6213230;23;20001;-78
2023/07/30 12:08:49;;;;;;;7.78;2.08;;;23.20;92.40;;;;;;6213789;23;20485;-77
2023/07/30 12:11:17;;;;;;;6.35;1.70;;;23.10;92.50;;;;;;6212944;23;20024;-78
2023/07/30 12:13:50;;;;;;;8.02;1.52;;;23.20;92.80;;;;;;6213544;23;20003;-78
2023/07/30 12:16:16;;;;;;;5.82;1.40;;;23.30;92.70;;;;;;6213141;23;20445;-77
2023/07/30 12:18:42;;;;;;;4.68;1.10;;;23.30;92.30;;;;;;6213011;23;20001;-77
2023/07/30 12:21:10;;;;;;;5.03;1.10;;;23.30;91.90;;;;;;6212977;23;20019;-78
2023/07/30 12:23:36;;;;;;;6.97;1.67;;;23.40;91.90;;;;;;6213135;23;20004;-78
2023/07/30 12:26:04;;;;;;;6.68;1.77;;;23.50;91.70;;;;;;6213142;23;20111;-78
2023/07/30 12:28:36;;;;;;;7.65;0.98;;;23.40;91.30;;;;;;6213276;23;20000;-77
2023/07/30 12:31:01;;;;;;;4.32;1.20;;;23.40;91.10;;;;;;6213074;23;19996;-78
2023/07/30 12:33:27;;;;;;;4.15;1.08;;;23.30;90.80;;;;;;6212461;23;20008;-77
2023/07/30 12:35:53;;;;;;;5.72;1.08;;;23.30;90.60;;;;;;6213264;23;20001;-78
2023/07/30 12:38:19;;;;;;;3.95;0.75;;;23.30;90.50;;;;;;6212642;23;20047;-78